Time;durP1;ratioP1;P1;durP2;ratioP2;P2;SDS_P1;SDS_P2;PMS_P1;PMS_P2;Temp;Humidity;BMP_temperature;BMP_pressure;BME280_temperature;BME280_humidity;BME280_pressure;Samples;Min_cycle;Max_cycle;Signal;HPM_P1;HPM_P2
2023/10/24 00:01:34;;;;;;;6.68;1.45;;;;;;;19.21;50.12;100153.78;16112924;19;130733;-39
2023/10/24 00:06:56;;;;;;;3.47;1.33;;;;;;;19.20;50.05;100157.63;16112522;19;130577;-39
2023/10/24 00:12:18;;;;;;;1.95;1.00;;;;;;;19.18;49.59;100150.69;16113154;19;130577;-39
2023/10/24 00:17:40;;;;;;;3.53;1.10;;;;;;;19.17;50.14;100144.31;16114543;19;130476;-39
2023/10/24 00:23:02;;;;;;;1.40;0.88;;;;;;;19.15;50.17;100151.22;16112777;19;129364;-39
2023/10/24 00:28:24;;;;;;;4.68;1.02;;;;;;;19.13;49.68;100142.34;16112767;19;130205;-39
2023/10/24 00:33:46;;;;;;;2.20;0.77;;;;;;;19.12;50.12;100135.97;16111713;19;129270;-39
2023/10/24 00:39:08;;;;;;;2.17;0.70;;;;;;;19.10;49.98;100148.41;16107848;19;131106;-39
2023/10/24 00:44:31;;;;;;;2.05;1.08;;;;;;;19.08;49.57;100141.19;16114327;19;130121;-39
2023/10/24 00:49:53;;;;;;;2.05;0.80;;;;;;;19.07;49.78;100139.56;16108595;19;129505;-38
2023/10/24 00:55:16;;;;;;;2.22;0.95;;;;;;;19.05;49.59;100139.00;16110281;19;129939;-39
2023/10/24 01:00:41;;;;;;;1.55;0.85;;;;;;;19.03;49.54;100148.66;16111707;19;130476;-39
2023/10/24 01:06:08;;;;;;;1.23;0.80;;;;;;;19.03;49.45;100149.50;16108535;19;129837;-40
2023/10/24 01:11:30;;;;;;;1.27;0.65;;;;;;;19.03;49.48;100149.50;16114006;19;130554;-39
2023/10/24 01:16:52;;;;;;;1.92;0.90;;;;;;;19.00;49.78;100151.97;16106798;19;131461;-39
2023/10/24 01:22:14;;;;;;;1.88;0.80;;;;;;;18.98;49.37;100160.53;16110558;19;129741;-40
2023/10/24 01:27:36;;;;;;;2.17;0.70;;;;;;;18.97;49.78;100161.66;16112227;19;131594;-39
2023/10/24 01:32:58;;;;;;;1.13;0.50;;;;;;;18.96;49.31;100168.28;16109506;19;130204;-40
2023/10/24 01:38:20;;;;;;;1.38;0.50;;;;;;;18.95;49.71;100163.88;16104139;19;130711;-39
2023/10/24 01:43:42;;;;;;;2.08;0.70;;;;;;;18.93;49.58;100160.53;16111428;19;129334;-39
2023/10/24 01:49:04;;;;;;;1.02;0.57;;;;;;;18.93;49.33;100160.53;16108388;19;129995;-39
2023/10/24 01:54:26;;;;;;;2.65;0.63;;;;;;;18.91;49.35;100154.41;16109147;19;129184;-40
2023/10/24 01:59:48;;;;;;;1.27;0.60;;;;;;;18.89;49.21;100167.69;16106671;19;129913;-39
2023/10/24 02:05:12;;;;;;;1.67;0.60;;;;;;;18.89;49.57;100154.66;16107083;19;129484;-39
2023/10/24 02:10:33;;;;;;;1.02;0.55;;;;;;;18.88;49.53;100164.09;16113266;19;132132;-40
2023/10/24 02:15:56;;;;;;;1.50;0.60;;;;;;;18.88;49.14;100163.25;16122201;19;134816;-39
2023/10/24 02:21:18;;;;;;;1.77;0.63;;;;;;;18.87;49.20;100176.28;16119322;19;129532;-39
2023/10/24 02:26:39;;;;;;;0.50;0.43;;;;;;;18.86;49.33;100177.38;16120182;19;129436;-39
2023/10/24 02:32:02;;;;;;;0.52;0.38;;;;;;;18.84;49.51;100179.59;16117941;19;131591;-40
2023/10/24 02:37:24;;;;;;;1.80;0.35;;;;;;;18.85;49.27;100172.94;16119989;19;129386;-39
2023/10/24 02:42:46;;;;;;;0.55;0.30;;;;;;;18.84;49.01;100175.97;16120235;19;129431;-39
2023/10/24 02:48:08;;;;;;;0.60;0.40;;;;;;;18.83;49.37;100172.38;16118845;19;129653;-39
2023/10/24 02:53:30;;;;;;;0.63;0.28;;;;;;;18.82;48.99;100169.88;16120901;19;132270;-39
2023/10/24 02:58:52;;;;;;;1.27;0.47;;;;;;;18.82;49.37;100180.97;16122189;19;131354;-38
2023/10/24 03:04:14;;;;;;;0.60;0.40;;;;;;;18.80;49.22;100191.47;16120525;19;131158;-40
2023/10/24 03:09:36;;;;;;;1.33;0.50;;;;;;;18.80;49.39;100186.75;16115453;19;130477;-39
2023/10/24 03:14:58;;;;;;;0.57;0.40;;;;;;;18.79;49.26;100187.03;16116419;19;130858;-38
2023/10/24 03:20:20;;;;;;;0.30;0.30;;;;;;;18.77;49.17;100201.97;16114708;19;130591;-39
2023/10/24 03:25:42;;;;;;;0.60;0.32;;;;;;;18.76;49.19;100205.84;16116067;19;129620;-39
2023/10/24 03:31:07;;;;;;;0.82;0.30;;;;;;;18.75;48.92;100195.03;16112900;19;131194;-39
2023/10/24 03:36:29;;;;;;;0.50;0.20;;;;;;;18.75;49.29;100198.63;16115368;19;131615;-39
2023/10/24 03:41:52;;;;;;;1.70;0.30;;;;;;;18.74;49.12;100191.41;16114674;19;129693;-39
2023/10/24 03:47:14;;;;;;;1.10;0.30;;;;;;;18.74;48.96;100196.97;16113896;19;129967;-39
2023/10/24 03:52:36;;;;;;;0.43;0.30;;;;;;;18.73;49.10;100200.84;16115511;19;134099;-38
2023/10/24 03:57:58;;;;;;;0.32;0.30;;;;;;;18.72;48.92;100193.63;16117065;19;129071;-39
2023/10/24 04:03:21;;;;;;;0.80;0.50;;;;;;;18.73;48.75;100184.22;16115038;19;129730;-39
2023/10/24 04:08:44;;;;;;;0.40;0.30;;;;;;;18.72;49.11;100184.47;16114068;19;130143;-39
2023/10/24 04:14:06;;;;;;;2.92;0.30;;;;;;;18.71;49.19;100180.84;16112282;19;130840;-39
2023/10/24 04:19:29;;;;;;;0.65;0.30;;;;;;;18.70;49.00;100156.19;16109956;19;130302;-39
2023/10/24 04:24:51;;;;;;;0.20;0.20;;;;;;;18.71;48.90;100167.00;16107111;19;133773;-39
2023/10/24 04:30:13;;;;;;;0.38;0.28;;;;;;;18.69;49.06;100172.00;16111822;19;129981;-39
2023/10/24 04:35:47;;;;;;;0.45;0.30;;;;;;;18.71;48.95;100172.56;16111779;19;130888;-39
2023/10/24 04:41:09;;;;;;;0.35;0.30;;;;;;;18.68;48.72;100167.56;16112438;19;131150;-39
2023/10/24 04:46:31;;;;;;;0.73;0.30;;;;;;;18.67;48.74;100157.56;16110535;19;131732;-40
2023/10/24 04:51:53;;;;;;;0.52;0.30;;;;;;;18.67;48.59;100165.88;16116958;19;130791;-38
2023/10/24 04:57:15;;;;;;;0.30;0.30;;;;;;;18.66;48.84;100158.66;16114996;19;129991;-40
2023/10/24 05:02:44;;;;;;;0.47;0.20;;;;;;;18.65;48.91;100170.84;16108029;19;129743;-39
2023/10/24 05:08:10;;;;;;;0.40;0.30;;;;;;;18.65;48.61;100175.53;16109088;19;129953;-39
2023/10/24 05:13:32;;;;;;;0.60;0.20;;;;;;;18.63;48.91;100161.97;16109030;19;130098;-39
2023/10/24 05:18:54;;;;;;;0.65;0.22;;;;;;;18.64;48.92;100152.56;16108413;19;130997;-39
2023/10/24 05:24:16;;;;;;;0.95;0.40;;;;;;;18.61;48.77;100142.00;16105657;19;130784;-40
2023/10/24 05:29:38;;;;;;;3.05;0.20;;;;;;;18.63;48.83;100150.88;16105048;19;131594;-39
2023/10/24 05:35:00;;;;;;;1.95;0.20;;;;;;;18.62;48.87;100160.28;16109681;19;130004;-39
2023/10/24 05:40:23;;;;;;;0.38;0.30;;;;;;;18.61;48.67;100189.94;16104791;19;130423;-40
2023/10/24 05:45:45;;;;;;;1.00;0.32;;;;;;;18.60;48.88;100190.19;16112848;19;130922;-39
2023/10/24 05:51:10;;;;;;;1.27;0.35;;;;;;;18.61;48.80;100192.72;16119815;19;130751;-39
2023/10/24 05:56:32;;;;;;;4.70;0.23;;;;;;;18.59;48.71;100171.91;16123481;19;129619;-39
2023/10/24 06:01:54;;;;;;;0.60;0.30;;;;;;;18.58;48.79;100176.63;16123217;19;129950;-42
2023/10/24 06:07:16;;;;;;;1.23;0.35;;;;;;;18.57;48.77;100176.88;16120988;19;131014;-39
2023/10/24 06:12:41;;;;;;;1.80;0.40;;;;;;;18.56;48.78;100184.34;16121527;19;133194;-40
2023/10/24 06:18:03;;;;;;;3.20;0.40;;;;;;;18.56;48.62;100189.06;16119665;19;129511;-40
2023/10/24 06:23:25;;;;;;;2.75;0.38;;;;;;;18.55;48.88;100190.16;16120408;19;129631;-39
2023/10/24 06:28:47;;;;;;;1.55;0.57;;;;;;;18.53;48.57;100189.59;16121311;19;131128;-39
2023/10/24 06:34:09;;;;;;;5.70;0.85;;;;;;;18.54;48.46;100191.25;16121667;19;130622;-39
2023/10/24 06:39:31;;;;;;;1.27;0.50;;;;;;;18.52;48.76;100179.59;16123001;19;130334;-39
2023/10/24 06:44:55;;;;;;;2.00;0.70;;;;;;;18.51;48.49;100173.25;16122734;19;131148;-39
2023/10/24 06:50:17;;;;;;;1.02;0.35;;;;;;;18.51;48.63;100180.69;16114355;19;130543;-39
2023/10/24 06:55:40;;;;;;;1.15;0.40;;;;;;;18.51;48.91;100186.25;16120577;19;129531;-39
2023/10/24 07:01:02;;;;;;;1.00;0.47;;;;;;;18.50;48.79;100162.41;16120480;19;129414;-39
2023/10/24 07:06:24;;;;;;;1.75;0.40;;;;;;;18.50;48.92;100154.94;16117933;19;129989;-39
2023/10/24 07:11:46;;;;;;;1.50;0.50;;;;;;;18.52;48.47;100152.75;16115558;19;131571;-39
2023/10/24 07:17:08;;;;;;;0.40;0.30;;;;;;;18.53;48.58;100143.31;16119178;19;129762;-39
2023/10/24 07:22:30;;;;;;;0.82;0.30;;;;;;;18.55;48.88;100135.59;16118218;19;129631;-39
2023/10/24 07:27:52;;;;;;;0.73;0.40;;;;;;;18.57;48.51;100138.94;16119206;19;132091;-40
2023/10/24 07:33:14;;;;;;;1.38;0.40;;;;;;;18.61;48.34;100147.53;16117700;19;131912;-39
2023/10/24 07:38:36;;;;;;;0.95;0.32;;;;;;;18.71;48.50;100157.88;16117042;19;130421;-39
2023/10/24 07:43:57;;;;;;;0.60;0.20;;;;;;;;;;16115779;19;129218;-40
2023/10/24 07:49:20;;;;;;;2.00;0.40;;;;;;;19.06;47.79;100148.97;16115815;19;129242;-39
2023/10/24 07:54:41;;;;;;;1.98;0.50;;;;;;;19.41;47.24;100154.97;16112063;19;130582;-39
2023/10/24 08:00:06;;;;;;;1.48;0.30;;;;;;;20.01;46.16;100151.88;16112806;19;129671;-39
2023/10/24 08:05:28;;;;;;;0.27;0.23;;;;;;;20.99;44.44;100137.16;16111685;19;130809;-39
2023/10/24 08:10:50;;;;;;;1.70;0.68;;;;;;;21.42;43.70;100151.47;16113276;19;129270;-40
2023/10/24 08:16:12;;;;;;;0.95;0.50;;;;;;;22.26;41.82;100159.16;16112597;19;129989;-41
2023/10/24 08:21:34;;;;;;;0.88;0.50;;;;;;;22.36;41.33;100163.84;16110814;19;129962;-39
2023/10/24 08:26:56;;;;;;;2.95;0.63;;;;;;;21.46;42.12;100171.25;16111962;19;130099;-39
2023/10/24 08:32:32;;;;;;;1.20;0.40;;;;;;;20.73;43.33;100184.44;16114105;19;131474;-40
2023/10/24 08:37:54;;;;;;;2.08;0.50;;;;;;;20.22;44.64;100186.06;16110537;19;130142;-40
2023/10/24 08:43:20;;;;;;;2.28;0.65;;;;;;;19.86;45.13;100174.84;16107592;19;131020;-40
2023/10/24 08:48:42;;;;;;;;;;;;;;;19.56;45.54;100172.81;16109122;19;131001;-40
2023/10/24 08:54:04;;;;;;;0.95;0.47;;;;;;;19.38;46.11;100178.56;16106837;19;129813;-39
2023/10/24 08:59:31;;;;;;;1.67;0.70;;;;;;;19.23;46.39;100184.00;16113045;19;129768;-39
2023/10/24 09:04:53;;;;;;;1.60;0.60;;;;;;;19.11;46.95;100188.91;16111821;19;129772;-39
2023/10/24 09:10:15;;;;;;;2.28;0.93;;;;;;;19.02;46.94;100181.09;16110680;19;130283;-39
2023/10/24 09:15:37;;;;;;;1.02;0.50;;;;;;;18.94;47.09;100184.38;16108426;19;129715;-39
2023/10/24 09:20:59;;;;;;;1.30;0.85;;;;;;;18.88;47.13;100161.34;16122229;19;130389;-39
2023/10/24 09:26:21;;;;;;;1.73;0.68;;;;;;;18.84;47.32;100170.41;16123221;19;129421;-39
2023/10/24 09:31:45;;;;;;;0.80;0.60;;;;;;;18.81;47.56;100163.50;16122485;19;130195;-39
2023/10/24 09:37:09;;;;;;;1.65;0.80;;;;;;;18.76;47.49;100164.28;16121364;19;130756;-39
2023/10/24 09:42:31;;;;;;;0.75;0.52;;;;;;;18.72;47.70;100167.84;16129958;19;130829;-39
2023/10/24 09:47:59;;;;;;;1.15;0.70;;;;;;;18.71;47.62;100168.97;16123653;19;130626;-39
2023/10/24 09:53:22;;;;;;;1.48;0.70;;;;;;;18.69;47.78;100165.63;16121206;19;129500;-39
2023/10/24 09:58:45;;;;;;;3.92;1.00;;;;;;;18.68;47.53;100170.34;16123096;19;129607;-39
2023/10/24 10:04:07;;;;;;;1.55;0.52;;;;;;;18.67;47.78;100195.50;16121053;19;129359;-39
2023/10/24 10:09:30;;;;;;;1.05;0.60;;;;;;;18.66;47.95;100200.22;16112403;19;129786;-39
2023/10/24 10:15:22;;;;;;;1.25;0.70;;;;;;;18.66;47.80;100199.38;16118679;19;129649;-39
2023/10/24 10:21:05;;;;;;;0.90;0.80;;;;;;;18.65;47.70;100209.63;16118979;19;129682;-39
2023/10/24 10:26:33;;;;;;;0.68;0.60;;;;;;;18.63;47.78;100206.28;16118023;19;130788;-41
2023/10/24 10:32:22;;;;;;;1.38;0.60;;;;;;;18.64;47.75;100207.97;16118102;19;130874;-39
2023/10/24 10:38:03;;;;;;;0.95;0.65;;;;;;;18.63;47.67;100211.84;16117612;19;131760;-38
2023/10/24 10:43:30;;;;;;;1.42;0.60;;;;;;;18.64;47.95;100204.38;16122478;19;130415;-39
2023/10/24 10:48:59;;;;;;;0.80;0.40;;;;;;;18.61;47.77;100206.56;16122099;19;129537;-39
2023/10/24 10:54:43;;;;;;;1.45;0.60;;;;;;;18.61;47.68;100202.94;16119473;19;130373;-41
2023/10/24 11:00:08;;;;;;;1.73;0.80;;;;;;;18.57;47.84;100191.56;16119706;19;129512;-40
2023/10/24 11:05:34;;;;;;;1.60;0.70;;;;;;;18.56;48.09;100178.00;16124531;19;129577;-39
2023/10/24 11:10:59;;;;;;;1.15;0.75;;;;;;;18.55;47.60;100176.31;16118914;19;131286;-39
2023/10/24 11:16:22;;;;;;;0.52;0.50;;;;;;;18.55;47.97;100165.25;16118038;19;129883;-39
2023/10/24 11:21:59;;;;;;;1.30;0.65;;;;;;;18.53;48.18;100172.97;16120334;19;130024;-40
2023/10/24 11:27:24;;;;;;;2.17;0.77;;;;;;;18.53;48.18;100162.72;16119341;19;129804;-40
2023/10/24 11:32:46;;;;;;;0.60;0.45;;;;;;;18.52;47.99;100154.69;16115851;19;129627;-39
2023/10/24 11:38:08;;;;;;;0.68;0.50;;;;;;;18.51;48.22;100137.25;16114336;19;129249;-39
2023/10/24 11:43:32;;;;;;;0.40;0.40;;;;;;;18.52;47.76;100132.53;16115769;19;135096;-39
2023/10/24 11:48:54;;;;;;;2.65;0.65;;;;;;;18.53;47.88;100117.56;16120022;19;129525;-39
2023/10/24 11:54:16;;;;;;;0.73;0.60;;;;;;;18.55;48.19;100120.91;16113867;19;131848;-39
2023/10/24 11:59:38;;;;;;;0.50;0.45;;;;;;;18.56;48.11;100122.59;16115767;19;129233;-40
2023/10/24 12:05:01;;;;;;;0.95;0.57;;;;;;;18.58;47.74;100128.69;16116049;19;129579;-39
2023/10/24 12:10:23;;;;;;;0.40;0.40;;;;;;;18.59;47.76;100116.50;16112501;19;132083;-40
2023/10/24 12:15:46;;;;;;;0.82;0.50;;;;;;;18.60;47.98;100120.94;16112738;19;131232;-39
2023/10/24 12:21:10;;;;;;;1.25;0.50;;;;;;;18.58;48.03;100120.41;16116375;19;129361;-39
2023/10/24 12:26:35;;;;;;;0.82;0.50;;;;;;;18.58;47.85;100109.31;16114171;19;129618;-39
2023/10/24 12:31:57;;;;;;;0.73;0.50;;;;;;;18.57;48.09;100107.63;16110650;19;130475;-39
2023/10/24 12:37:19;;;;;;;2.60;0.57;;;;;;;18.58;48.02;100092.69;16111210;19;130368;-39
2023/10/24 12:42:41;;;;;;;0.57;0.45;;;;;;;18.57;47.81;100097.38;16115264;19;129453;-39
2023/10/24 12:48:07;;;;;;;0.50;0.38;;;;;;;18.56;48.17;100112.34;16110808;19;132423;-39
2023/10/24 12:53:29;;;;;;;1.42;0.60;;;;;;;18.56;47.93;100105.97;16110265;19;129300;-39
2023/10/24 12:58:51;;;;;;;1.25;0.70;;;;;;;18.55;48.41;100105.13;16111232;19;129924;-40
2023/10/24 13:04:13;;;;;;;0.80;0.40;;;;;;;18.55;47.90;100109.84;16111072;19;129966;-39
2023/10/24 13:09:37;;;;;;;0.50;0.40;;;;;;;18.56;48.15;100114.28;16110199;19;133411;-39
2023/10/24 13:14:59;;;;;;;1.85;0.70;;;;;;;18.56;48.29;100103.19;16108502;19;130139;-39
2023/10/24 13:20:21;;;;;;;0.60;0.40;;;;;;;18.56;48.30;100105.97;16110518;19;131247;-39
2023/10/24 13:25:43;;;;;;;0.77;0.35;;;;;;;18.56;48.36;100109.56;16112137;19;130684;-39
2023/10/24 13:31:05;;;;;;;0.80;0.50;;;;;;;18.56;48.33;100105.97;16109288;19;128863;-38
2023/10/24 13:36:36;;;;;;;0.63;0.40;;;;;;;18.56;48.12;100105.97;16110088;19;130655;-39
2023/10/24 13:41:59;;;;;;;0.40;0.35;;;;;;;18.55;48.11;100105.13;16109320;19;129249;-39
2023/10/24 13:47:20;;;;;;;1.25;0.45;;;;;;;18.54;48.20;100094.31;16111225;19;130827;-39
2023/10/24 13:52:42;;;;;;;0.20;0.20;;;;;;;18.55;48.35;100098.75;16104805;19;132466;-39
2023/10/24 13:58:05;;;;;;;0.50;0.25;;;;;;;18.56;47.97;100092.13;16109564;19;130857;-39
2023/10/24 14:03:27;;;;;;;0.60;0.28;;;;;;;18.55;48.35;100093.22;16110318;19;130194;-39
2023/10/24 14:08:49;;;;;;;0.60;0.40;;;;;;;18.56;47.98;100089.34;16124338;19;129589;-40
2023/10/24 14:14:11;;;;;;;0.43;0.28;;;;;;;18.54;48.20;100094.31;16120758;19;130544;-40
2023/10/24 14:19:35;;;;;;;0.40;0.30;;;;;;;18.54;48.43;100097.91;16125145;19;130326;-39
2023/10/24 14:24:57;;;;;;;5.82;0.50;;;;;;;18.54;48.39;100092.38;16125180;19;129577;-39
2023/10/24 14:30:20;;;;;;;0.50;0.40;;;;;;;18.53;48.12;100084.34;16122516;19;129669;-42
2023/10/24 14:35:42;;;;;;;0.52;0.30;;;;;;;18.54;48.10;100094.31;16121842;19;130875;-39
2023/10/24 14:41:05;;;;;;;1.52;0.40;;;;;;;18.53;47.90;100089.88;16122037;19;129644;-39
2023/10/24 14:46:26;;;;;;;0.40;0.30;;;;;;;18.51;47.93;100092.91;16120586;19;131528;-40
2023/10/24 14:51:49;;;;;;;0.68;0.40;;;;;;;18.50;48.33;100096.78;16121165;19;129745;-39
2023/10/24 14:57:12;;;;;;;1.38;0.40;;;;;;;18.51;48.29;100086.53;16124044;19;134212;-39
2023/10/24 15:02:34;;;;;;;1.40;0.50;;;;;;;18.50;47.82;100094.03;16124428;19;130095;-42
2023/10/24 15:07:57;;;;;;;0.77;0.32;;;;;;;18.51;47.98;100092.06;16117997;19;131138;-40
2023/10/24 15:13:19;;;;;;;0.88;0.50;;;;;;;18.51;48.31;100089.28;16116718;19;130994;-41
2023/10/24 15:18:41;;;;;;;1.00;0.30;;;;;;;18.50;47.93;100093.16;16121846;19;129710;-41
2023/10/24 15:24:05;;;;;;;2.35;0.60;;;;;;;18.50;48.11;100112.56;16119633;19;130221;-40
2023/10/24 15:29:36;;;;;;;0.38;0.38;;;;;;;18.50;48.20;100107.00;16119889;19;129493;-40
2023/10/24 15:35:03;;;;;;;1.13;0.38;;;;;;;18.49;47.93;100095.13;16116027;19;129592;-40
2023/10/24 15:40:26;;;;;;;2.00;0.50;;;;;;;18.46;48.21;100107.53;16109009;19;129928;-40
2023/10/24 15:46:08;;;;;;;3.08;0.40;;;;;;;18.48;47.48;100100.91;16112759;19;131078;-40
2023/10/24 15:51:30;;;;;;;2.67;0.50;;;;;;;18.51;47.63;100117.00;16117575;19;129378;-40
2023/10/24 15:56:53;;;;;;;4.53;0.75;;;;;;;18.56;47.77;100112.34;16117446;19;130376;-40
2023/10/24 16:02:15;;;;;;;7.35;0.98;;;;;;;18.63;47.93;100117.63;16108186;19;130572;-41
2023/10/24 16:07:38;;;;;;;7.28;0.82;;;;;;;18.70;48.50;100121.03;16118206;19;130711;-40
2023/10/24 16:13:00;;;;;;;6.70;0.98;;;;;;;18.79;48.85;100114.97;16114563;19;131515;-40
2023/10/24 16:18:22;;;;;;;3.13;0.77;;;;;;;18.84;49.01;100124.16;16111827;19;130889;-41
2023/10/24 16:23:44;;;;;;;7.10;1.02;;;;;;;18.81;49.08;100126.63;16111213;19;131415;-42
2023/10/24 16:29:06;;;;;;;5.25;0.90;;;;;;;18.75;48.50;100136.84;16119152;19;129598;-41
2023/10/24 16:34:28;;;;;;;8.05;1.17;;;;;;;18.70;48.81;100134.88;16137398;19;131157;-41
2023/10/24 16:39:50;;;;;;;9.25;1.83;;;;;;;18.64;48.77;100151.75;16123081;19;130227;-44
2023/10/24 16:45:12;;;;;;;4.93;0.82;;;;;;;18.63;49.45;100148.13;16115366;19;130088;-42
2023/10/24 16:50:37;;;;;;;4.30;0.80;;;;;;;18.62;48.94;100157.53;16113935;19;130077;-42
2023/10/24 16:55:59;;;;;;;4.93;1.00;;;;;;;18.61;49.15;100161.38;16114057;19;131935;-42
2023/10/24 17:01:21;;;;;;;3.75;0.88;;;;;;;18.60;49.04;100168.03;16114309;19;131313;-42
2023/10/24 17:06:43;;;;;;;4.70;1.00;;;;;;;18.58;49.34;100164.72;16115908;19;130475;-42
2023/10/24 17:12:06;;;;;;;5.07;0.90;;;;;;;18.56;49.39;100169.69;16112919;19;130377;-40
2023/10/24 17:17:27;;;;;;;6.10;1.17;;;;;;;18.55;49.23;100165.25;16110932;19;131202;-41
2023/10/24 17:22:49;;;;;;;3.47;0.85;;;;;;;18.55;49.13;100170.78;16111655;19;132294;-43
2023/10/24 17:28:11;;;;;;;7.85;1.38;;;;;;;18.53;49.00;100167.44;16106021;19;129743;-41
2023/10/24 17:33:40;;;;;;;5.95;1.13;;;;;;;18.54;49.04;100169.09;16099730;19;129826;-41
2023/10/24 17:39:02;;;;;;;4.93;0.80;;;;;;;18.53;49.46;100172.97;16107439;19;130066;-43
2023/10/24 17:44:24;;;;;;;4.43;0.70;;;;;;;18.48;49.54;100168.22;16122289;19;131600;-43
2023/10/24 17:49:46;;;;;;;10.73;1.15;;;;;;;18.46;50.24;100167.66;16112461;19;130555;-43
2023/10/24 17:55:08;;;;;;;7.07;0.82;;;;;;;18.53;50.08;100175.75;16119451;19;131451;-40
2023/10/24 18:00:32;;;;;;;4.43;1.40;;;;;;;18.82;50.20;100176.25;16118412;19;129702;-43
2023/10/24 18:05:54;;;;;;;6.45;1.02;;;;;;;19.28;49.33;100184.06;16124691;19;130341;-45
2023/10/24 18:11:16;;;;;;;2.67;0.50;;;;;;;19.73;48.32;100176.22;16120581;19;130543;-47
2023/10/24 18:16:38;;;;;;;6.22;0.70;;;;;;;20.04;48.28;100168.00;16116995;19;130414;-42
2023/10/24 18:22:00;;;;;;;5.15;0.85;;;;;;;20.24;47.62;100175.53;16121172;19;129602;-50
2023/10/24 18:27:22;;;;;;;5.35;0.70;;;;;;;20.38;47.31;100173.03;16119386;19;130054;-46
2023/10/24 18:32:44;;;;;;;6.72;0.80;;;;;;;20.47;47.39;100172.50;16116407;19;130729;-41
2023/10/24 18:38:06;;;;;;;6.47;0.88;;;;;;;20.48;47.00;100166.66;16118397;19;131253;-39
2023/10/24 18:43:29;;;;;;;6.07;0.88;;;;;;;20.44;47.06;100168.31;16119704;19;130135;-40
2023/10/24 18:48:51;;;;;;;4.18;0.68;;;;;;;20.38;47.60;100161.91;16094055;19;132109;-43
2023/10/24 18:54:15;;;;;;;10.82;1.10;;;;;;;20.32;47.32;100156.63;16117614;19;130285;-43
2023/10/24 18:59:37;;;;;;;8.07;1.00;;;;;;;20.23;47.43;100157.19;16119025;19;129975;-40
2023/10/24 19:04:59;;;;;;;4.10;1.00;;;;;;;20.13;48.05;100163.56;16120629;19;129826;-40
2023/10/24 19:10:21;;;;;;;3.90;0.77;;;;;;;20.04;48.21;100162.44;16120177;19;129714;-42
2023/10/24 19:15:45;;;;;;;9.93;0.65;;;;;;;19.96;48.18;100166.56;16118275;19;131969;-39
2023/10/24 19:21:07;;;;;;;2.97;0.63;;;;;;;19.87;48.22;100159.88;16117901;19;129315;-43
2023/10/24 19:26:31;;;;;;;4.72;0.75;;;;;;;19.80;48.41;100171.22;16119106;19;130816;-38
2023/10/24 19:31:53;;;;;;;3.95;0.82;;;;;;;19.78;48.97;100167.06;16113999;19;130365;-40
2023/10/24 19:37:19;;;;;;;5.47;0.60;;;;;;;19.78;48.67;100165.13;16114465;19;130413;-38
2023/10/24 19:42:41;;;;;;;5.20;0.73;;;;;;;19.97;48.66;100167.41;16117924;19;130037;-39
2023/10/24 19:48:11;;;;;;;2.60;0.68;;;;;;;20.34;48.27;100171.09;16114469;19;129575;-41
2023/10/24 19:53:37;;;;;;;3.10;0.90;;;;;;;20.72;47.70;100174.44;16113341;19;129817;-41
2023/10/24 19:59:00;;;;;;;;;;;;;;;21.02;46.96;100175.53;16114095;19;129629;-40
2023/10/24 20:04:22;;;;;;;5.60;0.57;;;;;;;21.30;46.72;100170.44;16110008;19;131114;-43
2023/10/24 20:09:44;;;;;;;4.22;1.00;;;;;;;21.44;46.38;100168.72;16113868;19;130885;-40
2023/10/24 20:15:27;;;;;;;1.52;0.70;;;;;;;21.47;46.27;100173.75;16115701;19;130692;-41
2023/10/24 20:20:49;;;;;;;2.42;0.68;;;;;;;21.43;46.51;100182.94;16115029;19;131234;-41
2023/10/24 20:26:12;;;;;;;20.25;1.27;;;;;;;21.33;46.25;100175.44;16115469;19;129635;-43
2023/10/24 20:31:34;;;;;;;17.75;0.90;;;;;;;21.22;46.73;100171.88;16114657;19;130312;-44
2023/10/24 20:36:56;;;;;;;15.57;1.10;;;;;;;21.12;47.13;100181.09;16112576;19;130414;-43
2023/10/24 20:42:19;;;;;;;11.75;0.93;;;;;;;21.00;46.92;100172.22;16112498;19;131216;-40
2023/10/24 20:47:41;;;;;;;10.55;1.15;;;;;;;20.87;47.15;100168.88;16112490;19;130874;-43
2023/10/24 20:53:03;;;;;;;7.55;0.90;;;;;;;20.79;47.42;100168.63;16113892;19;129576;-43
2023/10/24 20:58:25;;;;;;;9.20;0.77;;;;;;;20.69;47.77;100178.59;16111991;19;130676;-40
2023/10/24 21:03:47;;;;;;;18.65;1.95;;;;;;;20.57;47.98;100173.31;16112333;19;130820;-40
2023/10/24 21:09:09;;;;;;;5.30;0.82;;;;;;;20.46;48.13;100177.22;16112523;19;129545;-42
2023/10/24 21:14:31;;;;;;;6.20;0.93;;;;;;;20.38;48.52;100170.25;16116308;19;130082;-40
2023/10/24 21:19:53;;;;;;;6.63;1.00;;;;;;;20.31;48.25;100163.31;16126736;19;129966;-40
2023/10/24 21:25:15;;;;;;;7.70;0.93;;;;;;;20.29;48.71;100160.81;16127901;19;131955;-41
2023/10/24 21:30:39;;;;;;;11.85;1.00;;;;;;;20.23;48.77;100159.97;16125452;19;130607;-42
2023/10/24 21:36:02;;;;;;;8.45;0.70;;;;;;;20.19;48.64;100169.94;16127869;19;129833;-46
2023/10/24 21:41:25;;;;;;;10.93;1.10;;;;;;;20.14;48.75;100168.00;16124165;19;129671;-40
2023/10/24 21:46:47;;;;;;;10.85;0.90;;;;;;;20.07;48.62;100170.22;16123179;19;130235;-41
2023/10/24 21:52:09;;;;;;;8.77;1.10;;;;;;;19.98;48.72;100164.34;16123282;19;130704;-42
2023/10/24 21:57:31;;;;;;;8.73;1.17;;;;;;;19.93;48.69;100157.94;16125115;19;130471;-41
2023/10/24 22:02:53;;;;;;;7.70;0.90;;;;;;;19.86;48.48;100149.06;16125997;19;130114;-41
2023/10/24 22:08:16;;;;;;;6.65;1.00;;;;;;;19.81;48.72;100147.09;16122927;19;131127;-41
2023/10/24 22:13:38;;;;;;;2.50;0.55;;;;;;;19.77;48.80;100140.41;16119791;19;129491;-43
2023/10/24 22:19:00;;;;;;;9.77;1.05;;;;;;;19.72;48.89;100132.06;16122655;19;129700;-40
2023/10/24 22:24:22;;;;;;;4.65;0.80;;;;;;;19.67;48.92;100127.34;16124926;19;131047;-41
2023/10/24 22:29:44;;;;;;;5.88;0.90;;;;;;;19.62;48.52;100125.38;16122660;19;130204;-40
2023/10/24 22:35:07;;;;;;;4.93;0.80;;;;;;;19.58;48.88;100137.31;16121289;19;131573;-41
2023/10/24 22:40:29;;;;;;;3.97;0.70;;;;;;;19.53;48.91;100130.63;16125384;19;130676;-42
2023/10/24 22:45:51;;;;;;;6.57;0.68;;;;;;;19.51;48.45;100120.91;16120811;19;130250;-40
2023/10/24 22:51:13;;;;;;;3.72;1.05;;;;;;;19.47;48.98;100115.09;16122434;19;131403;-43
2023/10/24 22:56:36;;;;;;;5.47;0.70;;;;;;;19.44;49.02;100120.34;16122901;19;129755;-40
2023/10/24 23:01:58;;;;;;;6.40;0.70;;;;;;;19.41;48.73;100120.88;16124775;19;129742;-40
2023/10/24 23:07:19;;;;;;;2.08;0.60;;;;;;;19.38;48.83;100112.00;16121040;19;130564;-39
2023/10/24 23:12:42;;;;;;;3.53;0.52;;;;;;;19.35;48.80;100115.28;16119545;19;130177;-41
2023/10/24 23:18:04;;;;;;;2.88;0.80;;;;;;;19.33;48.53;100114.72;16120661;19;129887;-43
2023/10/24 23:23:26;;;;;;;5.03;0.90;;;;;;;19.29;48.50;100108.06;16117214;19;129702;-40
2023/10/24 23:28:48;;;;;;;3.83;0.70;;;;;;;19.26;48.54;100114.16;16116965;19;130147;-41
2023/10/24 23:34:11;;;;;;;2.83;0.55;;;;;;;19.23;48.72;100114.69;16120496;19;129822;-41
2023/10/24 23:39:33;;;;;;;1.20;0.60;;;;;;;19.21;48.87;100114.13;16117782;19;130097;-41
2023/10/24 23:44:55;;;;;;;3.83;0.80;;;;;;;19.18;49.01;100109.94;16117650;19;130490;-41
2023/10/24 23:50:17;;;;;;;1.83;0.60;;;;;;;19.17;48.92;100115.75;16116417;19;129829;-42
2023/10/24 23:55:42;;;;;;;1.23;0.60;;;;;;;19.15;48.55;100107.69;16114104;19;130053;-40
